createdAt,value
2017-08-09T00:00:22.516Z,0.80
2017-08-09T00:02:50.649Z,0.80
2017-08-09T00:05:18.817Z,0.93
2017-08-09T00:07:46.961Z,0.90
2017-08-09T00:10:15.860Z,0.70
2017-08-09T00:12:44.039Z,0.90
2017-08-09T00:15:12.180Z,0.80
2017-08-09T00:17:40.356Z,1.00
2017-08-09T00:20:08.500Z,0.80
2017-08-09T00:22:36.645Z,0.53
2017-08-09T00:25:04.816Z,1.20
2017-08-09T00:27:32.947Z,1.00
2017-08-09T00:30:01.128Z,1.10
2017-08-09T00:32:29.228Z,0.90
2017-08-09T00:34:57.393Z,0.70
2017-08-09T00:37:26.347Z,0.87
2017-08-09T00:39:54.464Z,0.67
2017-08-09T00:42:22.604Z,1.07
2017-08-09T00:44:50.748Z,0.60
2017-08-09T00:47:18.887Z,0.77
2017-08-09T00:49:47.013Z,0.80
2017-08-09T00:52:15.148Z,0.80
2017-08-09T00:54:43.300Z,0.83
2017-08-09T00:57:12.219Z,0.87
2017-08-09T00:59:40.603Z,1.00
2017-08-09T01:02:08.724Z,0.67
2017-08-09T01:04:42.460Z,0.63
2017-08-09T01:07:10.608Z,0.70
2017-08-09T01:09:39.042Z,0.60
2017-08-09T01:12:07.173Z,0.90
2017-08-09T01:14:35.332Z,0.73
2017-08-09T01:17:03.496Z,0.70
2017-08-09T01:19:31.656Z,0.83
2017-08-09T01:21:59.788Z,0.50
2017-08-09T01:24:27.956Z,0.80
2017-08-09T01:26:57.929Z,0.60
2017-08-09T01:29:26.088Z,0.90
2017-08-09T01:31:54.236Z,0.83
2017-08-09T01:34:22.377Z,0.60
2017-08-09T01:36:50.504Z,0.70
2017-08-09T01:39:18.656Z,0.87
2017-08-09T01:41:46.818Z,1.03
2017-08-09T01:44:15.720Z,0.87
2017-08-09T01:46:43.866Z,0.90
2017-08-09T01:49:12.236Z,0.80
2017-08-09T01:51:40.469Z,0.70
2017-08-09T01:54:08.588Z,0.80
2017-08-09T01:56:36.720Z,0.70
2017-08-09T01:59:04.880Z,1.03
2017-08-09T02:01:33.046Z,0.93
2017-08-09T02:04:01.184Z,1.00
2017-08-09T02:06:29.323Z,0.97
2017-08-09T02:08:57.457Z,1.10
2017-08-09T02:11:26.371Z,0.70
2017-08-09T02:13:54.513Z,0.70
2017-08-09T02:16:23.455Z,0.83
2017-08-09T02:18:51.601Z,1.13
2017-08-09T02:21:20.524Z,0.93
2017-08-09T02:23:48.668Z,0.93
2017-08-09T02:26:16.795Z,0.80
2017-08-09T02:28:44.947Z,0.70
2017-08-09T02:31:13.088Z,0.73
2017-08-09T02:33:41.212Z,0.67
2017-08-09T02:36:09.339Z,0.80
2017-08-09T02:38:37.476Z,0.90
2017-08-09T02:41:05.616Z,0.70
2017-08-09T02:43:33.825Z,0.80
2017-08-09T02:46:02.066Z,0.87
2017-08-09T02:48:30.267Z,0.80
2017-08-09T02:50:58.376Z,0.87
2017-08-09T02:53:26.611Z,0.70
2017-08-09T02:55:54.799Z,0.90
2017-08-09T02:58:23.257Z,1.00
2017-08-09T03:00:51.397Z,0.90
2017-08-09T03:03:19.555Z,1.30
2017-08-09T03:05:47.761Z,0.80
2017-08-09T03:08:16.684Z,0.80
2017-08-09T03:10:44.819Z,1.07
2017-08-09T03:13:13.002Z,1.10
2017-08-09T03:15:41.159Z,0.77
2017-08-09T03:18:09.292Z,0.90
2017-08-09T03:20:37.451Z,0.80
2017-08-09T03:23:05.599Z,0.90
2017-08-09T03:25:33.733Z,0.73
2017-08-09T03:28:01.871Z,0.70
2017-08-09T03:30:30.022Z,0.87
2017-08-09T03:32:58.168Z,1.03
2017-08-09T03:35:26.317Z,0.80
2017-08-09T03:37:54.561Z,0.80
2017-08-09T03:40:22.707Z,0.60
2017-08-09T03:42:50.851Z,1.00
2017-08-09T03:45:18.984Z,0.83
2017-08-09T03:47:47.127Z,0.83
2017-08-09T03:50:15.257Z,0.67
2017-08-09T03:52:43.467Z,0.77
2017-08-09T03:55:11.605Z,0.90
2017-08-09T03:57:39.748Z,0.60
2017-08-09T04:00:07.881Z,0.67
2017-08-09T04:02:36.996Z,0.80
2017-08-09T04:05:05.155Z,1.10
2017-08-09T04:07:33.316Z,0.53
2017-08-09T04:10:01.479Z,0.77
2017-08-09T04:12:29.607Z,0.97
2017-08-09T04:14:57.752Z,0.90
2017-08-09T04:17:25.871Z,0.70
2017-08-09T04:19:54.016Z,0.73
2017-08-09T04:22:22.164Z,0.70
2017-08-09T04:24:51.100Z,0.87
2017-08-09T04:27:19.244Z,0.80
2017-08-09T04:29:47.388Z,1.30
2017-08-09T04:32:15.548Z,0.90
2017-08-09T04:34:43.690Z,1.10
2017-08-09T04:37:11.833Z,0.80
2017-08-09T04:39:40.741Z,0.80
2017-08-09T04:42:08.859Z,0.87
2017-08-09T04:44:37.017Z,0.80
2017-08-09T04:47:05.824Z,0.93
2017-08-09T04:49:34.087Z,0.70
2017-08-09T04:52:02.226Z,0.80
2017-08-09T04:54:30.355Z,0.60
2017-08-09T04:56:58.609Z,0.73
2017-08-09T04:59:26.732Z,0.70
2017-08-09T05:01:54.945Z,0.80
2017-08-09T05:04:23.084Z,0.90
2017-08-09T05:06:52.014Z,0.73
2017-08-09T05:09:20.148Z,0.80
2017-08-09T05:11:49.036Z,0.73
2017-08-09T05:14:18.199Z,0.97
2017-08-09T05:16:46.696Z,0.77
2017-08-09T05:19:14.824Z,0.80
2017-08-09T05:21:42.939Z,0.93
2017-08-09T05:24:11.116Z,0.57
2017-08-09T05:26:39.292Z,0.60
2017-08-09T05:29:07.424Z,0.60
2017-08-09T05:31:35.556Z,0.83
2017-08-09T05:34:03.659Z,0.80
2017-08-09T05:36:31.800Z,1.80
2017-08-09T05:39:00.022Z,0.50
2017-08-09T05:41:28.158Z,0.77
2017-08-09T05:43:56.275Z,0.90
2017-08-09T05:46:24.416Z,0.70
2017-08-09T05:48:52.541Z,0.70
2017-08-09T05:51:20.713Z,1.00
2017-08-09T05:53:48.898Z,0.80
2017-08-09T05:56:17.040Z,0.70
2017-08-09T05:58:45.176Z,0.70
2017-08-09T06:01:13.310Z,0.70
2017-08-09T06:03:41.460Z,0.80
2017-08-09T06:06:09.587Z,0.90
2017-08-09T06:08:37.724Z,0.87
2017-08-09T06:11:06.061Z,0.90
2017-08-09T06:13:34.189Z,1.00
2017-08-09T06:16:02.333Z,0.60
2017-08-09T06:18:30.460Z,0.70
2017-08-09T06:20:59.373Z,0.60
2017-08-09T06:23:27.546Z,0.70
2017-08-09T06:25:55.701Z,1.03
2017-08-09T06:28:23.825Z,0.70
2017-08-09T06:30:52.004Z,1.20
2017-08-09T06:33:20.141Z,0.70
2017-08-09T06:35:49.064Z,0.77
2017-08-09T06:38:32.060Z,0.47
2017-08-09T06:41:00.433Z,0.70
2017-08-09T06:43:28.592Z,0.50
2017-08-09T06:45:56.711Z,0.90
2017-08-09T06:48:24.828Z,1.13
2017-08-09T06:50:52.995Z,0.90
2017-08-09T06:53:21.119Z,0.70
2017-08-09T06:55:49.278Z,0.70
2017-08-09T06:58:18.200Z,0.60
2017-08-09T07:00:46.335Z,1.00
2017-08-09T07:03:15.245Z,0.93
2017-08-09T07:05:43.383Z,0.83
2017-08-09T07:08:11.513Z,1.00
2017-08-09T07:10:39.647Z,0.77
2017-08-09T07:13:08.551Z,0.70
2017-08-09T07:15:36.691Z,0.60
2017-08-09T07:18:05.688Z,0.80
2017-08-09T07:20:33.840Z,0.90
2017-08-09T07:23:02.017Z,0.90
2017-08-09T07:25:30.164Z,0.60
2017-08-09T07:27:58.309Z,0.50
2017-08-09T07:30:27.237Z,0.67
2017-08-09T07:32:55.361Z,0.63
2017-08-09T07:35:23.530Z,0.70
2017-08-09T07:37:51.711Z,0.70
2017-08-09T07:40:19.855Z,0.80
2017-08-09T07:42:47.992Z,0.70
2017-08-09T07:45:16.156Z,1.00
2017-08-09T07:47:44.300Z,0.90
2017-08-09T07:50:12.461Z,0.93
2017-08-09T07:52:40.564Z,0.97
2017-08-09T07:55:09.457Z,0.87
2017-08-09T07:57:38.352Z,0.70
2017-08-09T08:00:07.243Z,0.80
2017-08-09T08:02:37.093Z,0.80
2017-08-09T08:05:05.308Z,0.60
2017-08-09T08:07:33.488Z,0.80
2017-08-09T08:10:01.852Z,0.93
2017-08-09T08:12:30.061Z,1.00
2017-08-09T08:14:58.948Z,1.50
2017-08-09T08:17:27.916Z,0.50
2017-08-09T08:19:56.098Z,0.67
2017-08-09T08:22:24.249Z,0.80
2017-08-09T08:24:52.409Z,1.00
2017-08-09T08:27:20.560Z,0.63
2017-08-09T08:29:48.740Z,0.60
2017-08-09T08:32:16.893Z,0.90
2017-08-09T08:34:46.685Z,0.70
2017-08-09T08:37:14.816Z,0.73
2017-08-09T08:39:42.965Z,1.10
2017-08-09T08:42:11.125Z,0.80
2017-08-09T08:44:40.009Z,1.10
2017-08-09T08:47:08.918Z,1.00
2017-08-09T08:49:37.036Z,1.00
2017-08-09T08:52:05.224Z,1.00
2017-08-09T08:54:33.380Z,0.80
2017-08-09T08:57:01.513Z,1.03
2017-08-09T08:59:29.658Z,0.90
2017-08-09T09:01:57.822Z,0.93
2017-08-09T09:04:25.928Z,0.80
2017-08-09T09:06:54.092Z,0.60
2017-08-09T09:09:22.997Z,1.10
2017-08-09T09:11:56.800Z,1.03
2017-08-09T09:14:25.225Z,1.03
2017-08-09T09:16:53.349Z,0.70
2017-08-09T09:19:21.520Z,0.80
2017-08-09T09:21:49.665Z,0.80
2017-08-09T09:24:18.502Z,0.90
2017-08-09T09:26:46.624Z,0.97
2017-08-09T09:29:14.736Z,0.83
2017-08-09T09:31:43.638Z,0.97
2017-08-09T09:34:11.896Z,1.10
2017-08-09T09:36:40.056Z,0.80
2017-08-09T09:39:08.197Z,0.80
2017-08-09T09:41:36.451Z,0.60
2017-08-09T09:44:04.637Z,0.80
2017-08-09T09:46:32.788Z,0.70
2017-08-09T09:49:01.777Z,0.60
2017-08-09T09:51:30.656Z,0.70
2017-08-09T09:53:58.884Z,0.70
2017-08-09T09:56:27.016Z,0.97
2017-08-09T09:58:56.651Z,0.63
2017-08-09T10:01:24.793Z,0.77
2017-08-09T10:03:52.957Z,0.90
2017-08-09T10:06:21.094Z,0.93
2017-08-09T10:08:49.320Z,0.87
2017-08-09T10:11:18.214Z,0.90
2017-08-09T10:13:46.340Z,0.93
2017-08-09T10:16:14.508Z,0.77
2017-08-09T10:18:42.687Z,0.70
2017-08-09T10:21:10.820Z,1.53
2017-08-09T10:23:39.716Z,1.10
2017-08-09T10:26:08.641Z,0.80
2017-08-09T10:28:36.868Z,0.80
2017-08-09T10:31:04.992Z,0.80
2017-08-09T10:33:33.136Z,1.20
2017-08-09T10:36:01.296Z,0.80
2017-08-09T10:38:29.508Z,0.87
2017-08-09T10:40:57.660Z,0.60
2017-08-09T10:43:25.788Z,1.33
2017-08-09T10:45:54.241Z,1.00
2017-08-09T10:48:22.352Z,0.90
2017-08-09T10:50:50.498Z,0.90
2017-08-09T10:53:18.680Z,0.90
2017-08-09T10:55:46.812Z,0.50
2017-08-09T10:58:14.960Z,0.60
2017-08-09T11:00:43.203Z,0.80
2017-08-09T11:03:11.348Z,0.70
2017-08-09T11:05:39.546Z,0.90
2017-08-09T11:08:08.006Z,0.50
2017-08-09T11:10:36.269Z,0.60
2017-08-09T11:13:05.264Z,0.60
2017-08-09T11:15:34.279Z,0.60
2017-08-09T11:18:02.512Z,0.67
2017-08-09T11:20:30.803Z,0.63
2017-08-09T11:22:59.021Z,0.53
2017-08-09T11:25:27.269Z,0.80
2017-08-09T11:27:55.503Z,0.50
2017-08-09T11:30:23.736Z,0.57
2017-08-09T11:32:51.977Z,0.53
2017-08-09T11:35:20.252Z,0.80
2017-08-09T11:37:48.492Z,0.60
2017-08-09T11:40:16.758Z,0.63
2017-08-09T11:42:45.021Z,0.73
2017-08-09T11:45:13.254Z,0.70
2017-08-09T11:47:41.484Z,0.60
2017-08-09T11:50:09.712Z,0.80
2017-08-09T11:52:37.936Z,0.50
2017-08-09T11:55:06.202Z,0.70
2017-08-09T11:57:34.437Z,0.57
2017-08-09T12:00:02.763Z,0.70
2017-08-09T12:02:31.104Z,0.67
2017-08-09T12:04:59.370Z,0.67
2017-08-09T12:07:27.687Z,0.67
2017-08-09T12:09:55.942Z,0.80
2017-08-09T12:14:58.129Z,0.90
2017-08-09T12:17:27.629Z,0.70
2017-08-09T12:19:55.860Z,0.87
2017-08-09T12:22:24.143Z,1.00
2017-08-09T12:24:52.371Z,1.40
2017-08-09T12:27:21.381Z,0.90
2017-08-09T12:29:49.645Z,1.30
2017-08-09T12:32:18.669Z,0.90
2017-08-09T12:34:46.892Z,1.23
2017-08-09T12:37:15.126Z,1.00
2017-08-09T12:39:43.386Z,1.27
2017-08-09T12:42:12.738Z,1.23
2017-08-09T12:44:40.980Z,1.57
2017-08-09T12:47:09.280Z,1.20
2017-08-09T12:49:37.874Z,1.07
2017-08-09T12:52:06.116Z,1.23
2017-08-09T12:54:34.474Z,1.10
2017-08-09T12:57:02.713Z,1.20
2017-08-09T12:59:30.940Z,1.67
2017-08-09T13:01:59.182Z,1.27
2017-08-09T13:04:27.736Z,0.97
2017-08-09T13:06:56.166Z,2.00
2017-08-09T13:09:24.469Z,1.60
2017-08-09T13:11:52.767Z,1.83
2017-08-09T13:14:20.996Z,1.50
2017-08-09T13:16:50.005Z,1.43
2017-08-09T13:19:18.249Z,1.40
2017-08-09T13:21:46.542Z,1.33
2017-08-09T13:24:14.773Z,1.50
2017-08-09T13:26:43.030Z,1.43
2017-08-09T13:29:11.353Z,1.40
2017-08-09T13:31:39.583Z,1.50
2017-08-09T13:34:07.821Z,1.30
2017-08-09T13:36:36.821Z,1.37
2017-08-09T13:39:05.619Z,1.20
2017-08-09T13:41:33.866Z,1.80
2017-08-09T13:44:02.299Z,1.17
2017-08-09T13:46:30.547Z,1.40
2017-08-09T13:48:58.793Z,1.13
2017-08-09T13:51:27.142Z,1.30
2017-08-09T13:53:55.362Z,1.37
2017-08-09T13:56:24.357Z,1.30
2017-08-09T13:58:52.588Z,1.20
2017-08-09T14:01:20.826Z,1.10
2017-08-09T14:03:49.067Z,0.97
2017-08-09T14:06:17.652Z,0.93
2017-08-09T14:08:46.777Z,1.20
2017-08-09T14:11:15.004Z,0.90
2017-08-09T14:13:43.285Z,1.00
2017-08-09T14:16:11.676Z,1.30
2017-08-09T14:18:39.994Z,1.00
2017-08-09T14:21:09.028Z,1.37
2017-08-09T14:23:37.266Z,1.10
2017-08-09T14:26:06.288Z,1.13
2017-08-09T14:28:34.521Z,1.00
2017-08-09T14:31:02.740Z,1.00
2017-08-09T14:33:31.000Z,0.80
2017-08-09T14:35:59.244Z,1.10
2017-08-09T14:38:27.481Z,1.07
2017-08-09T14:40:55.760Z,1.10
2017-08-09T14:43:24.093Z,0.90
2017-08-09T14:45:53.129Z,1.20
2017-08-09T14:48:21.350Z,0.97
2017-08-09T14:50:50.422Z,0.90
2017-08-09T14:53:18.636Z,1.40
2017-08-09T14:55:47.681Z,1.00
2017-08-09T14:58:16.585Z,0.80
2017-08-09T15:00:50.161Z,1.10
2017-08-09T15:03:18.272Z,1.43
2017-08-09T15:05:46.410Z,0.70
2017-08-09T15:08:14.518Z,0.60
2017-08-09T15:10:42.657Z,1.07
2017-08-09T15:13:10.912Z,1.20
2017-08-09T15:15:39.060Z,0.80
2017-08-09T15:18:07.203Z,0.93
2017-08-09T15:20:35.404Z,1.03
2017-08-09T15:23:03.539Z,1.00
2017-08-09T15:25:31.699Z,1.00
2017-08-09T15:27:59.872Z,1.00
2017-08-09T15:30:28.021Z,0.80
2017-08-09T15:32:56.172Z,0.90
2017-08-09T15:35:25.068Z,0.90
2017-08-09T15:37:53.252Z,1.30
2017-08-09T15:40:22.168Z,0.90
2017-08-09T15:42:50.312Z,0.80
2017-08-09T15:45:19.222Z,0.80
2017-08-09T15:47:47.496Z,1.53
2017-08-09T15:50:15.638Z,0.73
2017-08-09T15:52:43.873Z,0.70
2017-08-09T15:55:12.020Z,0.77
2017-08-09T15:57:40.151Z,1.10
2017-08-09T16:00:08.336Z,0.80
2017-08-09T16:02:36.472Z,0.90
2017-08-09T16:05:04.928Z,0.83
2017-08-09T16:07:33.829Z,1.17
2017-08-09T16:10:01.960Z,0.80
2017-08-09T16:12:30.193Z,1.00
2017-08-09T16:14:58.328Z,0.83
2017-08-09T16:17:27.269Z,1.07
2017-08-09T16:19:55.408Z,0.73
2017-08-09T16:22:23.533Z,0.90
2017-08-09T16:24:51.784Z,1.23
2017-08-09T16:27:19.903Z,1.00
2017-08-09T16:29:48.098Z,0.90
2017-08-09T16:32:16.246Z,0.83
2017-08-09T16:34:44.410Z,0.93
2017-08-09T16:37:12.533Z,0.80
2017-08-09T16:39:40.675Z,1.40
2017-08-09T16:42:08.805Z,0.90
2017-08-09T16:44:36.969Z,0.80
2017-08-09T16:47:05.192Z,0.90
2017-08-09T16:49:33.340Z,0.90
2017-08-09T16:52:01.483Z,0.80
2017-08-09T16:54:29.640Z,1.23
2017-08-09T16:56:58.548Z,1.23
2017-08-09T16:59:26.688Z,1.20
2017-08-09T17:01:54.829Z,1.10
2017-08-09T17:04:22.952Z,0.70
2017-08-09T17:06:51.084Z,1.37
2017-08-09T17:09:19.220Z,0.77
2017-08-09T17:11:48.016Z,0.90
2017-08-09T17:14:16.161Z,0.70
2017-08-09T17:16:44.381Z,1.00
2017-08-09T17:19:12.484Z,0.83
2017-08-09T17:21:40.599Z,1.00
2017-08-09T17:24:08.728Z,0.80
2017-08-09T17:26:36.868Z,0.83
2017-08-09T17:29:05.002Z,1.30
2017-08-09T17:31:33.928Z,1.23
2017-08-09T17:34:02.068Z,1.30
2017-08-09T17:36:30.200Z,1.10
2017-08-09T17:38:58.313Z,0.90
2017-08-09T17:41:26.452Z,1.03
2017-08-09T17:43:54.608Z,1.07
2017-08-09T17:46:22.735Z,0.90
2017-08-09T17:48:51.257Z,0.80
2017-08-09T17:51:19.401Z,0.87
2017-08-09T17:53:48.304Z,1.03
2017-08-09T17:56:17.247Z,1.10
2017-08-09T17:58:45.363Z,0.90
2017-08-09T18:01:14.252Z,0.90
2017-08-09T18:03:43.228Z,1.00
2017-08-09T18:06:11.939Z,1.27
2017-08-09T18:08:40.820Z,0.97
2017-08-09T18:11:09.697Z,1.10
2017-08-09T18:13:37.893Z,0.80
2017-08-09T18:16:06.796Z,1.13
2017-08-09T18:18:34.943Z,0.97
2017-08-09T18:21:03.076Z,0.70
2017-08-09T18:23:31.222Z,1.20
2017-08-09T18:25:59.340Z,1.00
2017-08-09T18:28:27.504Z,1.10
2017-08-09T18:30:55.676Z,0.70
2017-08-09T18:33:23.804Z,1.03
2017-08-09T18:35:53.290Z,1.37
2017-08-09T18:38:21.429Z,1.30
2017-08-09T18:40:49.644Z,1.00
2017-08-09T18:43:17.784Z,1.23
2017-08-09T18:45:46.012Z,0.97
2017-08-09T18:48:14.931Z,1.30
2017-08-09T18:50:43.055Z,1.40
2017-08-09T18:53:11.189Z,1.23
2017-08-09T18:55:39.317Z,1.20
2017-08-09T18:58:08.200Z,1.00
2017-08-09T19:00:36.329Z,1.60
2017-08-09T19:03:04.481Z,1.33
2017-08-09T19:05:32.607Z,1.40
2017-08-09T19:08:00.760Z,1.30
2017-08-09T19:10:28.991Z,1.10
2017-08-09T19:12:57.879Z,1.10
2017-08-09T19:15:26.769Z,1.10
2017-08-09T19:17:55.676Z,1.13
2017-08-09T19:20:23.820Z,1.30
2017-08-09T19:22:51.949Z,1.20
2017-08-09T19:25:20.099Z,1.00
2017-08-09T19:27:48.242Z,1.27
2017-08-09T19:30:16.380Z,1.23
2017-08-09T19:32:44.520Z,1.23
2017-08-09T19:35:12.682Z,1.20
2017-08-09T19:37:41.583Z,1.10
2017-08-09T19:40:09.709Z,2.03
2017-08-09T19:42:37.852Z,1.30
2017-08-09T19:45:05.992Z,1.50
2017-08-09T19:47:35.088Z,1.60
2017-08-09T19:50:03.228Z,1.63
2017-08-09T19:52:31.376Z,1.57
2017-08-09T19:54:59.860Z,1.20
2017-08-09T19:57:27.992Z,1.90
2017-08-09T19:59:56.763Z,1.67
2017-08-09T20:02:24.916Z,1.43
2017-08-09T20:04:53.051Z,1.63
2017-08-09T20:07:21.180Z,1.50
2017-08-09T20:09:49.333Z,2.07
2017-08-09T20:12:17.474Z,1.60
2017-08-09T20:14:45.597Z,1.90
2017-08-09T20:17:13.751Z,1.53
2017-08-09T20:19:41.869Z,1.93
2017-08-09T20:22:09.988Z,1.63
2017-08-09T20:24:38.188Z,1.77
2017-08-09T20:27:06.344Z,2.20
2017-08-09T20:29:35.176Z,1.90
2017-08-09T20:32:03.300Z,1.60
2017-08-09T20:34:31.432Z,1.40
2017-08-09T20:36:59.569Z,1.80
2017-08-09T20:40:52.172Z,1.87
2017-08-09T20:43:21.503Z,2.03
2017-08-09T20:45:49.624Z,1.80
2017-08-09T20:48:17.857Z,1.80
2017-08-09T20:50:46.020Z,2.37
2017-08-09T20:53:14.173Z,1.80
2017-08-09T20:55:43.132Z,2.20
2017-08-09T20:58:11.245Z,2.20
2017-08-09T21:00:39.492Z,1.80
2017-08-09T21:03:07.631Z,1.80
2017-08-09T21:05:35.759Z,1.70
2017-08-09T21:08:04.685Z,2.10
2017-08-09T21:10:33.096Z,1.90
2017-08-09T21:13:01.233Z,2.17
2017-08-09T21:15:29.395Z,2.10
2017-08-09T21:17:57.744Z,2.20
2017-08-09T21:20:25.885Z,2.27
2017-08-09T21:22:54.020Z,2.50
2017-08-09T21:25:22.158Z,1.87
2017-08-09T21:27:50.329Z,2.03
2017-08-09T21:30:18.460Z,2.40
2017-08-09T21:32:46.600Z,2.00
2017-08-09T21:35:16.091Z,1.70
2017-08-09T21:37:44.289Z,1.90
2017-08-09T21:40:13.216Z,2.07
2017-08-09T21:42:41.376Z,2.10
2017-08-09T21:45:09.501Z,2.30
2017-08-09T21:47:37.656Z,2.07
2017-08-09T21:50:05.821Z,2.13
2017-08-09T21:52:33.988Z,1.73
2017-08-09T21:55:02.273Z,2.37
2017-08-09T21:57:30.411Z,2.50
2017-08-09T21:59:59.332Z,2.20
2017-08-09T22:02:27.552Z,1.83
2017-08-09T22:04:55.768Z,2.20
2017-08-09T22:07:23.899Z,2.20
2017-08-09T22:09:52.060Z,2.13
2017-08-09T22:12:20.185Z,2.23
2017-08-09T22:14:48.404Z,2.27
2017-08-09T22:17:16.557Z,2.53
2017-08-09T22:19:44.692Z,2.50
2017-08-09T22:22:13.594Z,2.90
2017-08-09T22:24:42.476Z,2.13
2017-08-09T22:27:11.393Z,2.57
2017-08-09T22:29:39.540Z,2.73
2017-08-09T22:32:07.664Z,2.50
2017-08-09T22:34:35.821Z,2.63
2017-08-09T22:37:03.955Z,2.60
2017-08-09T22:39:32.076Z,2.20
2017-08-09T22:42:00.195Z,2.60
2017-08-09T22:44:28.422Z,2.10
2017-08-09T22:46:56.537Z,2.13
2017-08-09T22:49:25.404Z,2.30
2017-08-09T22:51:53.544Z,2.60
2017-08-09T22:54:21.697Z,2.47
2017-08-09T22:56:50.599Z,2.60
2017-08-09T22:59:18.760Z,2.80
2017-08-09T23:01:46.880Z,2.90
2017-08-09T23:04:15.012Z,2.63
2017-08-09T23:06:43.948Z,2.40
2017-08-09T23:09:12.091Z,2.40
2017-08-09T23:11:40.245Z,2.60
2017-08-09T23:14:08.375Z,2.70
2017-08-09T23:16:36.507Z,2.80
2017-08-09T23:19:05.409Z,3.10
2017-08-09T23:21:33.532Z,2.60
2017-08-09T23:24:01.680Z,2.47
2017-08-09T23:26:29.855Z,2.60
2017-08-09T23:28:57.979Z,2.77
2017-08-09T23:31:26.140Z,2.60
2017-08-09T23:33:54.279Z,2.70
2017-08-09T23:36:22.404Z,2.47
2017-08-09T23:38:50.554Z,2.50
2017-08-09T23:41:18.676Z,2.87
2017-08-09T23:43:46.828Z,2.90
2017-08-09T23:46:14.977Z,2.43
2017-08-09T23:48:43.118Z,2.50
2017-08-09T23:51:11.897Z,2.57
2017-08-09T23:53:40.043Z,2.90
2017-08-09T23:56:08.176Z,3.00
2017-08-09T23:58:36.316Z,2.30
